createdAt,value
2018-11-03T00:01:42.980Z,3.60
2018-11-03T00:04:11.140Z,5.50
2018-11-03T00:06:39.276Z,7.53
2018-11-03T00:09:10.143Z,4.40
2018-11-03T00:11:38.639Z,5.20
2018-11-03T00:14:07.236Z,7.57
2018-11-03T00:16:35.609Z,4.67
2018-11-03T00:19:04.251Z,4.70
2018-11-03T00:21:32.349Z,6.23
2018-11-03T00:24:00.576Z,8.43
2018-11-03T00:26:29.127Z,6.03
2018-11-03T00:28:57.283Z,6.03
2018-11-03T00:31:32.041Z,5.90
2018-11-03T00:34:00.199Z,5.10
2018-11-03T00:36:28.352Z,7.40
2018-11-03T00:38:56.454Z,9.07
2018-11-03T00:41:24.532Z,6.87
2018-11-03T00:43:52.794Z,6.33
2018-11-03T00:46:20.904Z,5.17
2018-11-03T00:48:49.190Z,4.50
2018-11-03T00:51:17.296Z,4.27
2018-11-03T00:53:45.419Z,6.10
2018-11-03T00:56:13.745Z,6.17
2018-11-03T00:58:41.900Z,12.93
2018-11-03T01:01:10.238Z,5.67
2018-11-03T01:03:44.902Z,9.30
2018-11-03T01:06:12.984Z,4.00
2018-11-03T01:08:41.121Z,5.90
2018-11-03T01:11:09.560Z,5.93
2018-11-03T01:13:37.708Z,6.03
2018-11-03T01:16:06.361Z,4.23
2018-11-03T01:18:34.535Z,8.63
2018-11-03T01:21:02.674Z,5.93
2018-11-03T01:23:30.805Z,8.00
2018-11-03T01:25:58.902Z,4.43
2018-11-03T01:28:27.049Z,8.53
2018-11-03T01:30:55.278Z,6.20
2018-11-03T01:33:23.447Z,5.70
2018-11-03T01:35:51.600Z,5.33
2018-11-03T01:38:19.732Z,7.00
2018-11-03T01:40:47.816Z,7.30
2018-11-03T01:43:15.913Z,4.80
2018-11-03T01:45:44.101Z,8.57
2018-11-03T01:48:12.242Z,5.37
2018-11-03T01:50:40.337Z,6.03
2018-11-03T01:53:08.400Z,5.57
2018-11-03T01:55:36.491Z,8.33
2018-11-03T01:58:04.734Z,7.93
2018-11-03T02:00:32.840Z,6.10
2018-11-03T02:03:00.872Z,5.60
2018-11-03T02:05:28.949Z,7.10
2018-11-03T02:07:57.001Z,7.30
2018-11-03T02:10:25.136Z,7.50
2018-11-03T02:12:53.240Z,5.90
2018-11-03T02:15:21.315Z,6.93
2018-11-03T02:17:49.603Z,6.87
2018-11-03T02:20:17.729Z,7.47
2018-11-03T02:22:45.789Z,6.03
2018-11-03T02:25:13.836Z,7.43
2018-11-03T02:27:41.989Z,8.93
2018-11-03T02:30:11.097Z,8.58
2018-11-03T02:32:39.324Z,7.20
2018-11-03T02:35:08.854Z,14.05
2018-11-03T02:37:37.512Z,7.58
2018-11-03T02:40:07.574Z,8.20
2018-11-03T02:42:35.679Z,6.58
2018-11-03T02:45:04.949Z,8.50
2018-11-03T02:47:33.139Z,9.68
2018-11-03T02:50:01.286Z,8.75
2018-11-03T02:52:29.485Z,7.67
2018-11-03T02:55:04.394Z,12.00
2018-11-03T02:57:32.502Z,9.03
2018-11-03T03:00:00.552Z,7.90
2018-11-03T03:02:28.749Z,9.35
2018-11-03T03:04:57.016Z,8.70
2018-11-03T03:07:25.136Z,9.55
2018-11-03T03:09:53.207Z,12.78
2018-11-03T03:12:21.326Z,9.38
2018-11-03T03:14:49.399Z,11.38
2018-11-03T03:17:17.501Z,9.03
2018-11-03T03:19:45.565Z,10.75
2018-11-03T03:22:13.593Z,11.45
2018-11-03T03:24:41.716Z,10.05
2018-11-03T03:27:09.884Z,9.60
2018-11-03T03:29:38.123Z,10.18
2018-11-03T03:32:06.497Z,11.93
2018-11-03T03:34:34.913Z,11.80
2018-11-03T03:37:03.066Z,12.85
2018-11-03T03:39:31.187Z,11.10
2018-11-03T03:41:59.326Z,10.93
2018-11-03T03:44:27.415Z,10.00
2018-11-03T03:46:55.427Z,10.23
2018-11-03T03:49:23.613Z,11.10
2018-11-03T03:51:51.748Z,11.05
2018-11-03T03:54:19.866Z,11.18
2018-11-03T03:56:47.995Z,14.63
2018-11-03T03:59:16.045Z,11.95
2018-11-03T04:01:44.091Z,9.90
2018-11-03T04:04:12.177Z,8.83
2018-11-03T04:06:40.253Z,10.05
2018-11-03T04:09:08.871Z,8.75
2018-11-03T04:11:36.975Z,9.28
2018-11-03T04:14:05.113Z,8.33
2018-11-03T04:16:33.208Z,8.73
2018-11-03T04:19:01.277Z,12.33
2018-11-03T04:21:31.130Z,12.15
2018-11-03T04:23:59.217Z,10.00
2018-11-03T04:26:28.528Z,9.30
2018-11-03T04:28:56.992Z,8.88
2018-11-03T04:31:25.330Z,12.28
2018-11-03T04:33:53.366Z,9.30
2018-11-03T04:36:21.446Z,13.45
2018-11-03T04:38:49.549Z,12.85
2018-11-03T04:41:17.583Z,12.75
2018-11-03T04:43:45.590Z,11.00
2018-11-03T04:46:13.635Z,12.65
2018-11-03T04:48:41.607Z,12.05
2018-11-03T04:51:09.722Z,10.20
2018-11-03T04:53:37.779Z,13.65
2018-11-03T04:56:05.982Z,10.70
2018-11-03T04:58:34.027Z,12.00
2018-11-03T05:01:02.050Z,10.78
2018-11-03T05:03:30.111Z,13.48
2018-11-03T05:05:58.179Z,10.90
2018-11-03T05:08:26.266Z,13.48
2018-11-03T05:10:54.294Z,12.07
2018-11-03T05:13:22.525Z,14.90
2018-11-03T05:15:50.589Z,16.12
2018-11-03T05:18:18.641Z,12.98
2018-11-03T05:20:46.664Z,16.48
2018-11-03T05:23:14.688Z,13.20
2018-11-03T05:25:42.814Z,13.68
2018-11-03T05:28:10.875Z,16.77
2018-11-03T05:30:39.052Z,12.30
2018-11-03T05:33:07.125Z,14.53
2018-11-03T05:35:35.243Z,13.25
2018-11-03T05:38:03.393Z,11.38
2018-11-03T05:40:31.470Z,12.82
2018-11-03T05:42:59.514Z,11.97
2018-11-03T05:45:27.660Z,17.32
2018-11-03T05:47:55.736Z,11.73
2018-11-03T05:50:23.824Z,12.40
2018-11-03T05:52:51.980Z,13.60
2018-11-03T05:55:20.001Z,12.63
2018-11-03T05:57:48.076Z,13.88
2018-11-03T06:00:16.323Z,13.83
2018-11-03T06:02:44.473Z,16.95
2018-11-03T06:05:12.658Z,15.30
2018-11-03T06:07:40.797Z,17.40
2018-11-03T06:10:09.151Z,21.82
2018-11-03T06:12:37.431Z,14.95
2018-11-03T06:15:06.327Z,19.85
2018-11-03T06:17:34.425Z,17.98
2018-11-03T06:20:02.469Z,20.08
2018-11-03T06:22:30.636Z,19.65
2018-11-03T06:24:58.681Z,18.70
2018-11-03T06:27:26.791Z,21.12
2018-11-03T06:29:54.895Z,21.07
2018-11-03T06:32:22.944Z,18.52
2018-11-03T06:34:51.063Z,18.10
2018-11-03T06:37:19.139Z,21.02
2018-11-03T06:39:47.315Z,18.70
2018-11-03T06:42:15.548Z,17.35
2018-11-03T06:44:43.713Z,21.45
2018-11-03T06:47:11.821Z,19.85
2018-11-03T06:49:39.981Z,17.75
2018-11-03T06:52:08.279Z,19.15
2018-11-03T06:54:36.291Z,18.25
2018-11-03T06:57:04.614Z,15.28
2018-11-03T06:59:32.689Z,15.98
2018-11-03T07:02:00.801Z,18.85
2018-11-03T07:04:28.969Z,17.57
2018-11-03T07:06:57.044Z,19.42
2018-11-03T07:09:25.245Z,16.73
2018-11-03T07:11:53.343Z,18.50
2018-11-03T07:14:21.453Z,16.60
2018-11-03T07:16:49.522Z,16.07
2018-11-03T07:19:17.576Z,20.85
2018-11-03T07:21:45.931Z,16.23
2018-11-03T07:24:14.029Z,16.45
2018-11-03T07:26:43.824Z,15.72
2018-11-03T07:29:12.000Z,17.00
2018-11-03T07:31:40.208Z,19.98
2018-11-03T07:34:08.332Z,16.20
2018-11-03T07:36:36.531Z,18.67
2018-11-03T07:39:06.888Z,15.25
2018-11-03T07:41:35.178Z,15.45
2018-11-03T07:44:06.732Z,18.32
2018-11-03T07:46:34.925Z,14.85
2018-11-03T07:49:03.157Z,15.08
2018-11-03T07:51:31.278Z,16.90
2018-11-03T07:53:59.460Z,15.85
2018-11-03T07:56:27.672Z,17.67
2018-11-03T07:58:55.815Z,16.35
2018-11-03T08:01:24.096Z,16.93
2018-11-03T08:03:52.361Z,17.35
2018-11-03T08:06:20.512Z,18.77
2018-11-03T08:08:48.780Z,15.05
2018-11-03T08:11:16.896Z,14.80
2018-11-03T08:13:45.097Z,18.67
2018-11-03T08:16:13.225Z,18.82
2018-11-03T08:18:41.448Z,15.10
2018-11-03T08:21:09.617Z,16.67
2018-11-03T08:23:37.810Z,20.08
2018-11-03T08:26:06.011Z,15.65
2018-11-03T08:28:34.205Z,16.05
2018-11-03T08:31:02.418Z,18.77
2018-11-03T08:33:30.726Z,14.28
2018-11-03T08:35:58.961Z,19.55
2018-11-03T08:38:27.152Z,17.15
2018-11-03T08:40:55.419Z,20.95
2018-11-03T08:43:23.600Z,15.58
2018-11-03T08:45:51.699Z,15.40
2018-11-03T08:48:19.969Z,15.55
2018-11-03T08:50:48.254Z,15.63
2018-11-03T08:53:16.523Z,16.97
2018-11-03T08:55:44.672Z,21.02
2018-11-03T08:58:12.823Z,15.18
2018-11-03T09:00:40.970Z,20.92
2018-11-03T09:03:09.194Z,16.73
2018-11-03T09:05:37.395Z,21.95
2018-11-03T09:08:05.904Z,19.60
2018-11-03T09:10:34.411Z,18.80
2018-11-03T09:13:02.566Z,18.92
2018-11-03T09:15:30.774Z,17.90
2018-11-03T09:18:02.235Z,16.57
2018-11-03T09:20:30.459Z,20.75
2018-11-03T09:22:58.857Z,21.80
2018-11-03T09:25:27.084Z,17.70
2018-11-03T09:27:55.433Z,20.50
2018-11-03T09:30:23.602Z,15.93
2018-11-03T09:32:51.851Z,18.07
2018-11-03T09:35:20.052Z,16.40
2018-11-03T09:37:48.378Z,15.65
2018-11-03T09:40:17.331Z,16.77
2018-11-03T09:42:47.062Z,17.77
2018-11-03T09:45:15.409Z,16.85
2018-11-03T09:47:43.971Z,19.85
2018-11-03T09:50:13.739Z,16.25
2018-11-03T09:52:42.308Z,17.17
2018-11-03T09:55:13.663Z,20.35
2018-11-03T09:57:42.252Z,17.82
2018-11-03T10:00:18.034Z,15.93
2018-11-03T10:02:46.390Z,19.48
2018-11-03T10:05:15.034Z,16.00
2018-11-03T10:07:43.376Z,17.30
2018-11-03T10:10:17.416Z,20.40
2018-11-03T10:12:45.832Z,18.77
2018-11-03T10:15:15.303Z,20.03
2018-11-03T10:17:43.979Z,17.15
2018-11-03T10:20:12.148Z,18.10
2018-11-03T10:22:40.503Z,15.07
2018-11-03T10:25:14.292Z,15.87
2018-11-03T10:27:43.234Z,20.97
2018-11-03T10:30:13.041Z,17.10
2018-11-03T10:32:41.629Z,17.77
2018-11-03T10:35:10.958Z,17.75
2018-11-03T10:37:39.390Z,16.63
2018-11-03T10:40:13.932Z,15.77
2018-11-03T10:42:42.501Z,20.37
2018-11-03T10:45:12.135Z,16.23
2018-11-03T10:47:40.658Z,21.87
2018-11-03T10:50:11.619Z,16.57
2018-11-03T10:52:40.799Z,17.13
2018-11-03T10:55:10.342Z,17.40
2018-11-03T10:57:38.837Z,18.27
2018-11-03T11:00:15.155Z,16.10
2018-11-03T11:02:49.079Z,19.37
2018-11-03T11:06:24.684Z,19.53
2018-11-03T11:08:58.371Z,20.20
2018-11-03T11:11:32.456Z,18.03
2018-11-03T11:14:00.668Z,14.33
2018-11-03T11:16:29.064Z,15.30
2018-11-03T11:18:57.278Z,18.60
2018-11-03T11:21:25.500Z,16.47
2018-11-03T11:23:54.190Z,16.40
2018-11-03T11:26:22.436Z,17.33
2018-11-03T11:28:50.962Z,17.73
2018-11-03T11:31:19.406Z,16.23
2018-11-03T11:33:47.611Z,15.97
2018-11-03T11:36:15.876Z,15.47
2018-11-03T11:38:44.078Z,17.23
2018-11-03T11:41:12.303Z,18.60
2018-11-03T11:43:40.467Z,16.40
2018-11-03T11:46:08.705Z,16.73
2018-11-03T11:48:36.845Z,20.43
2018-11-03T11:51:05.272Z,17.43
2018-11-03T11:53:33.491Z,16.30
2018-11-03T11:56:01.648Z,16.50
2018-11-03T11:58:29.908Z,18.43
2018-11-03T12:00:58.402Z,21.33
2018-11-03T12:03:26.537Z,18.67
2018-11-03T12:05:54.662Z,18.97
2018-11-03T12:08:23.097Z,21.33
2018-11-03T12:10:51.253Z,16.83
2018-11-03T12:13:19.496Z,16.57
2018-11-03T12:15:47.763Z,16.20
2018-11-03T12:18:15.955Z,18.03
2018-11-03T12:20:44.130Z,16.97
2018-11-03T12:23:12.387Z,16.80
2018-11-03T12:25:40.631Z,17.50
2018-11-03T12:28:08.893Z,14.60
2018-11-03T12:30:37.176Z,14.67
2018-11-03T12:33:05.644Z,15.10
2018-11-03T12:35:33.926Z,14.23
2018-11-03T12:38:02.055Z,19.57
2018-11-03T12:40:30.214Z,14.30
2018-11-03T12:42:58.498Z,15.10
2018-11-03T12:45:26.692Z,17.40
2018-11-03T12:47:54.867Z,14.43
2018-11-03T12:50:23.064Z,14.20
2018-11-03T12:52:51.231Z,16.40
2018-11-03T12:55:19.393Z,15.03
2018-11-03T12:57:47.550Z,13.63
2018-11-03T13:00:16.178Z,14.27
2018-11-03T13:02:45.106Z,16.20
2018-11-03T13:05:13.561Z,14.90
2018-11-03T13:07:42.996Z,13.03
2018-11-03T13:10:11.693Z,15.03
2018-11-03T13:12:40.444Z,14.47
2018-11-03T13:15:09.785Z,15.43
2018-11-03T13:17:38.048Z,18.87
2018-11-03T13:20:08.553Z,12.57
2018-11-03T13:22:36.837Z,13.97
2018-11-03T13:25:06.826Z,14.90
2018-11-03T13:27:36.252Z,14.30
2018-11-03T13:30:05.108Z,14.73
2018-11-03T13:32:33.248Z,16.63
2018-11-03T13:35:01.602Z,15.10
2018-11-03T13:37:29.802Z,13.40
2018-11-03T13:39:58.265Z,15.37
2018-11-03T13:42:26.425Z,13.07
2018-11-03T13:44:54.596Z,14.70
2018-11-03T13:47:23.010Z,14.17
2018-11-03T13:49:51.238Z,13.70
2018-11-03T13:52:19.649Z,15.00
2018-11-03T13:54:47.824Z,13.50
2018-11-03T13:57:16.012Z,14.33
2018-11-03T13:59:44.504Z,12.93
2018-11-03T14:02:12.756Z,13.57
2018-11-03T14:04:41.077Z,12.07
2018-11-03T14:07:09.168Z,12.47
2018-11-03T14:09:37.508Z,15.60
2018-11-03T14:12:06.209Z,14.17
2018-11-03T14:14:34.312Z,11.60
2018-11-03T14:17:02.700Z,15.90
2018-11-03T14:19:30.783Z,14.50
2018-11-03T14:21:58.951Z,12.63
2018-11-03T14:24:27.110Z,13.37
2018-11-03T14:26:55.502Z,12.27
2018-11-03T14:29:23.991Z,11.73
2018-11-03T14:31:52.269Z,14.83
2018-11-03T14:34:21.051Z,12.43
2018-11-03T14:36:49.136Z,12.70
2018-11-03T14:39:17.333Z,14.10
2018-11-03T14:41:45.489Z,14.30
2018-11-03T14:44:13.904Z,12.77
2018-11-03T14:46:42.139Z,12.10
2018-11-03T14:49:10.454Z,13.60
2018-11-03T14:51:38.916Z,12.87
2018-11-03T14:54:07.048Z,11.30
2018-11-03T14:56:35.360Z,12.57
2018-11-03T14:59:03.492Z,14.80
2018-11-03T15:01:31.661Z,12.57
2018-11-03T15:03:59.899Z,14.50
2018-11-03T15:06:28.957Z,12.07
2018-11-03T15:08:57.235Z,11.50
2018-11-03T15:11:25.504Z,12.43
2018-11-03T15:13:54.030Z,12.73
2018-11-03T15:16:22.591Z,12.07
2018-11-03T15:18:50.796Z,11.60
2018-11-03T15:21:19.127Z,11.40
2018-11-03T15:23:47.331Z,10.53
2018-11-03T15:26:15.761Z,13.03
2018-11-03T15:28:44.008Z,15.33
2018-11-03T15:31:12.236Z,16.30
2018-11-03T15:33:40.474Z,12.40
2018-11-03T15:36:08.677Z,13.27
2018-11-03T15:38:37.873Z,18.60
2018-11-03T15:41:06.341Z,13.60
2018-11-03T15:43:34.488Z,11.70
2018-11-03T15:46:02.616Z,13.03
2018-11-03T15:48:30.952Z,13.53
2018-11-03T15:50:59.326Z,12.20
2018-11-03T15:53:27.880Z,13.63
2018-11-03T15:55:56.163Z,11.33
2018-11-03T15:58:24.357Z,15.10
2018-11-03T16:00:52.770Z,13.80
2018-11-03T16:03:20.994Z,13.90
2018-11-03T16:05:49.254Z,13.50
2018-11-03T16:08:17.505Z,11.97
2018-11-03T16:10:45.647Z,16.87
2018-11-03T16:13:13.861Z,13.70
2018-11-03T16:15:42.497Z,13.50
2018-11-03T16:18:10.729Z,15.60
2018-11-03T16:20:38.925Z,13.30
2018-11-03T16:23:07.164Z,16.53
2018-11-03T16:25:35.352Z,14.70
2018-11-03T16:28:03.648Z,15.47
2018-11-03T16:30:32.078Z,12.10
2018-11-03T16:33:00.414Z,13.30
2018-11-03T16:35:28.958Z,12.00
2018-11-03T16:37:57.234Z,11.67
2018-11-03T16:40:25.548Z,12.47
2018-11-03T16:42:53.818Z,14.10
2018-11-03T16:45:22.262Z,13.00
2018-11-03T16:47:50.625Z,15.73
2018-11-03T16:50:18.788Z,14.80
2018-11-03T16:52:47.077Z,15.73
2018-11-03T16:55:15.338Z,17.37
2018-11-03T16:57:43.488Z,15.47
2018-11-03T17:00:13.230Z,15.83
2018-11-03T17:02:41.834Z,14.50
2018-11-03T17:05:11.413Z,16.33
2018-11-03T17:07:39.726Z,17.50
2018-11-03T17:10:11.281Z,15.50
2018-11-03T17:12:40.691Z,15.47
2018-11-03T17:15:08.828Z,15.88
2018-11-03T17:17:37.501Z,16.93
2018-11-03T17:20:06.237Z,16.32
2018-11-03T17:22:34.416Z,14.37
2018-11-03T17:25:02.714Z,17.27
2018-11-03T17:27:30.965Z,14.55
2018-11-03T17:29:59.385Z,15.60
2018-11-03T17:32:28.444Z,14.30
2018-11-03T17:34:56.696Z,19.20
2018-11-03T17:37:24.848Z,30.80
2018-11-03T17:39:53.035Z,18.67
2018-11-03T17:42:21.405Z,20.25
2018-11-03T17:44:49.654Z,16.10
2018-11-03T17:47:18.049Z,15.90
2018-11-03T17:49:46.351Z,16.37
2018-11-03T17:52:14.517Z,17.93
2018-11-03T17:54:42.944Z,16.60
2018-11-03T17:57:11.240Z,15.07
2018-11-03T17:59:39.528Z,14.63
2018-11-03T18:02:07.851Z,17.90
2018-11-03T18:04:36.050Z,14.75
2018-11-03T18:07:04.496Z,26.83
2018-11-03T18:09:32.879Z,17.13
2018-11-03T18:12:01.239Z,19.07
2018-11-03T18:14:29.611Z,14.60
2018-11-03T18:16:57.840Z,16.50
2018-11-03T18:19:26.079Z,20.48
2018-11-03T18:21:54.378Z,16.20
2018-11-03T18:24:22.717Z,16.80
2018-11-03T18:26:50.955Z,16.07
2018-11-03T18:29:19.196Z,18.63
2018-11-03T18:31:47.471Z,19.23
2018-11-03T18:34:15.723Z,18.07
2018-11-03T18:36:44.005Z,19.48
2018-11-03T18:39:12.323Z,17.37
2018-11-03T18:41:40.714Z,20.70
2018-11-03T18:44:09.146Z,20.37
2018-11-03T18:46:37.533Z,18.30
2018-11-03T18:49:06.288Z,15.40
2018-11-03T18:51:34.569Z,17.07
2018-11-03T18:54:02.854Z,20.07
2018-11-03T18:56:31.216Z,16.45
2018-11-03T18:58:59.364Z,18.80
2018-11-03T19:01:27.552Z,18.85
2018-11-03T19:03:55.819Z,17.87
2018-11-03T19:06:24.069Z,20.20
2018-11-03T19:08:52.342Z,17.85
2018-11-03T19:11:20.652Z,18.63
2018-11-03T19:13:48.965Z,19.35
2018-11-03T19:16:17.301Z,17.57
2018-11-03T19:18:45.653Z,17.42
2018-11-03T19:21:13.925Z,17.97
2018-11-03T19:23:42.436Z,17.77
2018-11-03T19:26:10.854Z,19.27
2018-11-03T19:28:39.091Z,20.92
2018-11-03T19:31:07.442Z,19.23
2018-11-03T19:33:35.687Z,18.30
2018-11-03T19:36:04.281Z,18.23
2018-11-03T19:38:32.684Z,16.03
2018-11-03T19:41:00.888Z,18.50
2018-11-03T19:43:29.086Z,20.97
2018-11-03T19:45:57.289Z,18.40
2018-11-03T19:48:25.666Z,17.50
2018-11-03T19:50:53.979Z,22.17
2018-11-03T19:53:22.300Z,15.90
2018-11-03T19:55:50.487Z,17.20
2018-11-03T19:58:18.641Z,19.53
2018-11-03T20:00:46.931Z,17.47
2018-11-03T20:03:15.185Z,28.40
2018-11-03T20:05:43.312Z,21.53
2018-11-03T20:08:11.555Z,18.67
2018-11-03T20:10:39.892Z,20.10
2018-11-03T20:13:08.069Z,19.07
2018-11-03T20:15:36.389Z,19.03
2018-11-03T20:18:04.877Z,18.33
2018-11-03T20:20:32.963Z,16.57
2018-11-03T20:23:01.231Z,18.30
2018-11-03T20:25:29.458Z,20.07
2018-11-03T20:27:57.863Z,18.73
2018-11-03T20:30:26.262Z,15.57
2018-11-03T20:32:54.471Z,17.40
2018-11-03T20:35:22.605Z,20.67
2018-11-03T20:37:50.908Z,16.83
2018-11-03T20:40:19.208Z,16.07
2018-11-03T20:42:47.462Z,19.00
2018-11-03T20:45:15.883Z,17.13
2018-11-03T20:47:44.251Z,20.00
2018-11-03T20:50:14.275Z,16.57
2018-11-03T20:52:42.616Z,15.67
2018-11-03T20:55:11.565Z,17.73
2018-11-03T20:57:40.860Z,18.40
2018-11-03T21:00:12.419Z,18.33
2018-11-03T21:02:40.587Z,18.30
2018-11-03T21:05:10.039Z,19.10
2018-11-03T21:07:38.942Z,16.10
2018-11-03T21:10:07.367Z,17.60
2018-11-03T21:12:35.652Z,18.73
2018-11-03T21:15:04.008Z,21.93
2018-11-03T21:17:32.280Z,18.90
2018-11-03T21:20:00.755Z,16.63
2018-11-03T21:22:29.011Z,20.27
2018-11-03T21:24:57.210Z,21.47
2018-11-03T21:27:32.371Z,19.10
2018-11-03T21:30:00.962Z,15.63
2018-11-03T21:32:29.271Z,21.40
2018-11-03T21:34:57.529Z,19.60
2018-11-03T21:37:25.777Z,17.60
2018-11-03T21:39:54.114Z,19.13
2018-11-03T21:42:22.333Z,17.37
2018-11-03T21:44:50.798Z,17.07
2018-11-03T21:47:19.037Z,21.03
2018-11-03T21:49:47.293Z,21.80
2018-11-03T21:52:15.503Z,17.60
2018-11-03T21:54:43.647Z,15.97
2018-11-03T21:57:12.693Z,18.63
2018-11-03T21:59:40.912Z,16.60
2018-11-03T22:02:09.041Z,20.10
2018-11-03T22:04:37.190Z,19.57
2018-11-03T22:07:05.607Z,18.87
2018-11-03T22:09:33.857Z,18.87
2018-11-03T22:12:02.150Z,22.70
2018-11-03T22:14:30.310Z,20.10
2018-11-03T22:16:58.505Z,17.80
2018-11-03T22:19:26.742Z,18.23
2018-11-03T22:21:55.024Z,16.90
2018-11-03T22:24:23.073Z,16.10
2018-11-03T22:26:51.220Z,17.47
2018-11-03T22:29:19.456Z,18.53
2018-11-03T22:31:47.618Z,16.57
2018-11-03T22:34:15.760Z,17.93
2018-11-03T22:36:43.930Z,22.17
2018-11-03T22:39:12.167Z,19.00
2018-11-03T22:41:40.326Z,19.83
2018-11-03T22:44:08.889Z,18.40
2018-11-03T22:46:37.062Z,17.10
2018-11-03T22:49:05.373Z,17.43
2018-11-03T22:51:33.649Z,19.87
2018-11-03T22:54:01.762Z,17.10
2018-11-03T22:56:29.859Z,21.13
2018-11-03T22:58:58.202Z,19.23
2018-11-03T23:01:26.476Z,18.40
2018-11-03T23:03:54.651Z,17.27
2018-11-03T23:06:22.774Z,19.07
2018-11-03T23:08:50.892Z,19.43
2018-11-03T23:11:19.030Z,17.87
2018-11-03T23:13:47.235Z,19.00
2018-11-03T23:16:21.985Z,18.17
2018-11-03T23:18:50.193Z,19.33
2018-11-03T23:21:18.315Z,20.50
2018-11-03T23:23:46.545Z,22.00
2018-11-03T23:26:14.658Z,21.47
2018-11-03T23:28:42.753Z,18.40
2018-11-03T23:31:10.978Z,18.77
2018-11-03T23:33:39.070Z,22.20
2018-11-03T23:36:07.185Z,20.77
2018-11-03T23:38:35.272Z,20.33
2018-11-03T23:41:03.408Z,18.73
2018-11-03T23:43:31.477Z,18.15
2018-11-03T23:45:59.691Z,23.17
2018-11-03T23:48:27.819Z,19.73
2018-11-03T23:50:55.877Z,20.23
2018-11-03T23:53:24.208Z,20.23
2018-11-03T23:55:52.215Z,21.77
2018-11-03T23:58:20.352Z,22.90
